createdAt,value
2019-02-26T00:01:55.152Z,9.08
2019-02-26T00:04:27.313Z,9.03
2019-02-26T00:06:58.609Z,9.53
2019-02-26T00:09:30.604Z,9.13
2019-02-26T00:12:01.940Z,8.95
2019-02-26T00:14:32.259Z,9.08
2019-02-26T00:17:06.018Z,9.35
2019-02-26T00:19:34.654Z,9.48
2019-02-26T00:22:07.772Z,8.68
2019-02-26T00:24:39.748Z,8.05
2019-02-26T00:27:10.900Z,8.95
2019-02-26T00:29:41.194Z,8.68
2019-02-26T00:32:13.511Z,8.88
2019-02-26T00:34:43.563Z,9.80
2019-02-26T00:37:13.882Z,8.93
2019-02-26T00:39:45.323Z,9.38
2019-02-26T00:42:19.538Z,9.93
2019-02-26T00:44:51.358Z,9.75
2019-02-26T00:47:20.319Z,9.28
2019-02-26T00:49:51.784Z,8.40
2019-02-26T00:52:22.684Z,8.60
2019-02-26T00:54:53.686Z,9.25
2019-02-26T00:57:27.184Z,10.05
2019-02-26T00:59:57.090Z,9.35
2019-02-26T01:02:27.417Z,9.65
2019-02-26T01:04:57.747Z,9.40
2019-02-26T01:07:30.282Z,9.68
2019-02-26T01:10:01.328Z,9.05
2019-02-26T01:12:33.036Z,8.85
2019-02-26T01:15:05.422Z,9.98
2019-02-26T01:17:38.365Z,9.70
2019-02-26T01:20:13.124Z,8.75
2019-02-26T01:22:45.401Z,9.43
2019-02-26T01:25:17.892Z,8.33
2019-02-26T01:27:51.101Z,9.18
2019-02-26T01:30:23.609Z,9.33
2019-02-26T01:32:53.862Z,9.45
2019-02-26T01:35:26.168Z,9.98
2019-02-26T01:37:59.876Z,9.88
2019-02-26T01:40:28.920Z,9.53
2019-02-26T01:43:01.123Z,9.78
2019-02-26T01:45:32.638Z,10.10
2019-02-26T01:48:04.016Z,10.65
2019-02-26T01:50:35.647Z,11.28
2019-02-26T01:53:07.054Z,12.15
2019-02-26T01:55:39.319Z,12.03
2019-02-26T01:58:09.430Z,12.43
2019-02-26T02:00:40.806Z,12.58
2019-02-26T02:03:11.595Z,14.00
2019-02-26T02:05:43.267Z,13.32
2019-02-26T02:08:15.484Z,11.60
2019-02-26T02:10:46.439Z,13.10
2019-02-26T02:13:16.782Z,12.03
2019-02-26T02:15:48.197Z,12.58
2019-02-26T02:18:20.568Z,11.93
2019-02-26T02:20:50.573Z,12.40
2019-02-26T02:23:21.859Z,12.82
2019-02-26T02:25:52.950Z,13.00
2019-02-26T02:28:23.882Z,11.95
2019-02-26T02:30:55.314Z,12.65
2019-02-26T02:33:27.530Z,13.00
2019-02-26T02:35:57.693Z,12.75
2019-02-26T02:38:28.055Z,10.78
2019-02-26T02:40:58.381Z,11.50
2019-02-26T02:43:28.812Z,12.40
2019-02-26T02:46:01.329Z,11.45
2019-02-26T02:48:31.190Z,13.15
2019-02-26T02:51:20.866Z,12.20
2019-02-26T02:53:54.093Z,12.10
2019-02-26T02:56:25.076Z,12.10
2019-02-26T02:58:55.763Z,13.25
2019-02-26T03:01:28.564Z,11.88
2019-02-26T03:03:59.013Z,12.18
2019-02-26T03:06:32.391Z,12.03
2019-02-26T03:09:02.231Z,12.37
2019-02-26T03:11:38.635Z,11.95
2019-02-26T03:14:08.226Z,11.65
2019-02-26T03:16:39.954Z,12.20
2019-02-26T03:19:12.200Z,11.78
2019-02-26T03:21:44.636Z,12.87
2019-02-26T03:24:14.347Z,13.20
2019-02-26T03:26:44.694Z,12.30
2019-02-26T03:29:15.026Z,12.07
2019-02-26T03:31:49.115Z,12.23
2019-02-26T03:34:21.777Z,12.90
2019-02-26T03:36:49.435Z,12.18
2019-02-26T03:39:19.772Z,12.85
2019-02-26T03:41:51.069Z,13.10
2019-02-26T03:44:22.148Z,13.38
2019-02-26T03:46:52.487Z,12.43
2019-02-26T03:49:26.337Z,11.80
2019-02-26T03:51:59.118Z,12.82
2019-02-26T03:54:27.184Z,12.75
2019-02-26T03:56:57.590Z,12.37
2019-02-26T03:59:27.931Z,12.47
2019-02-26T04:01:58.411Z,13.03
2019-02-26T04:04:30.953Z,12.70
2019-02-26T04:07:04.121Z,12.75
2019-02-26T04:09:33.983Z,12.90
2019-02-26T04:12:04.328Z,12.40
2019-02-26T04:14:34.666Z,13.03
2019-02-26T04:17:06.452Z,12.70
2019-02-26T04:19:37.044Z,13.10
2019-02-26T04:22:49.766Z,12.85
2019-02-26T04:25:37.514Z,12.03
2019-02-26T04:28:32.996Z,12.83
2019-02-26T04:31:11.489Z,12.80
2019-02-26T04:34:06.203Z,12.43
2019-02-26T04:37:24.769Z,12.35
2019-02-26T04:40:10.168Z,13.22
2019-02-26T04:43:07.227Z,13.43
2019-02-26T04:45:57.297Z,13.13
2019-02-26T04:48:34.435Z,13.70
2019-02-26T04:51:04.770Z,14.20
2019-02-26T04:53:36.443Z,12.73
2019-02-26T04:56:12.815Z,13.22
2019-02-26T04:58:42.464Z,13.47
2019-02-26T05:01:15.376Z,14.40
2019-02-26T05:03:45.005Z,14.00
2019-02-26T05:06:15.340Z,14.10
2019-02-26T05:08:45.673Z,12.77
2019-02-26T05:11:30.736Z,13.23
2019-02-26T05:13:48.073Z,12.73
2019-02-26T05:16:18.409Z,12.83
2019-02-26T05:18:49.624Z,12.90
2019-02-26T05:21:20.795Z,13.10
2019-02-26T05:23:52.395Z,13.00
2019-02-26T05:26:23.273Z,13.18
2019-02-26T05:28:53.632Z,13.70
2019-02-26T05:31:23.962Z,12.70
2019-02-26T05:33:55.390Z,13.70
2019-02-26T05:36:28.236Z,13.40
2019-02-26T05:39:00.363Z,13.45
2019-02-26T05:41:30.424Z,13.33
2019-02-26T05:44:01.871Z,13.88
2019-02-26T05:46:32.848Z,12.80
2019-02-26T05:49:05.551Z,13.45
2019-02-26T05:51:36.068Z,13.50
2019-02-26T05:54:08.051Z,13.67
2019-02-26T05:56:41.264Z,14.07
2019-02-26T05:59:15.105Z,12.43
2019-02-26T06:02:03.405Z,14.23
2019-02-26T06:04:35.193Z,14.13
2019-02-26T06:07:05.798Z,15.20
2019-02-26T06:09:36.216Z,14.33
2019-02-26T06:12:06.554Z,12.75
2019-02-26T06:14:39.222Z,12.60
2019-02-26T06:17:10.663Z,13.63
2019-02-26T06:20:17.829Z,13.62
2019-02-26T06:22:48.160Z,13.83
2019-02-26T06:25:23.632Z,13.63
2019-02-26T06:27:50.546Z,13.20
2019-02-26T06:30:20.889Z,13.80
2019-02-26T06:32:51.237Z,13.53
2019-02-26T06:35:21.579Z,13.87
2019-02-26T06:37:51.917Z,13.43
2019-02-26T06:40:22.263Z,13.43
2019-02-26T06:42:52.612Z,13.40
2019-02-26T06:45:22.962Z,13.27
2019-02-26T06:47:54.588Z,13.63
2019-02-26T06:50:25.332Z,13.70
2019-02-26T06:52:55.681Z,14.30
2019-02-26T06:55:26.022Z,14.30
2019-02-26T06:58:18.211Z,14.40
2019-02-26T07:00:52.099Z,12.98
2019-02-26T07:03:24.169Z,13.40
2019-02-26T07:05:52.615Z,13.62
2019-02-26T07:08:24.171Z,13.50
2019-02-26T07:10:54.995Z,13.78
2019-02-26T07:13:25.347Z,14.23
2019-02-26T07:15:55.683Z,13.70
2019-02-26T07:18:26.065Z,13.85
2019-02-26T07:20:58.226Z,12.75
2019-02-26T07:23:29.788Z,13.25
2019-02-26T07:26:00.793Z,13.25
2019-02-26T07:28:31.134Z,12.70
2019-02-26T07:31:02.684Z,12.73
2019-02-26T07:33:35.129Z,13.13
2019-02-26T07:36:06.572Z,12.75
2019-02-26T07:38:41.269Z,12.55
2019-02-26T07:41:09.027Z,11.97
2019-02-26T07:43:43.481Z,13.20
2019-02-26T07:46:14.478Z,13.30
2019-02-26T07:48:46.154Z,13.45
2019-02-26T07:51:16.454Z,13.75
2019-02-26T07:53:50.589Z,13.15
2019-02-26T07:56:20.667Z,13.62
2019-02-26T07:58:50.873Z,13.80
2019-02-26T08:01:21.256Z,13.22
2019-02-26T08:03:53.275Z,14.13
2019-02-26T08:06:23.714Z,14.00
2019-02-26T08:08:54.053Z,12.95
2019-02-26T08:11:24.399Z,13.20
2019-02-26T08:13:56.755Z,12.73
2019-02-26T08:16:27.726Z,12.98
2019-02-26T08:19:01.425Z,12.73
2019-02-26T08:21:31.903Z,11.83
2019-02-26T08:24:02.234Z,12.43
2019-02-26T08:26:32.647Z,12.28
2019-02-26T08:29:05.750Z,12.50
2019-02-26T08:31:36.726Z,12.88
2019-02-26T08:34:07.073Z,13.03
2019-02-26T08:36:37.424Z,12.95
2019-02-26T08:39:08.272Z,11.95
2019-02-26T08:41:39.888Z,13.28
2019-02-26T08:44:10.290Z,12.00
2019-02-26T08:46:42.698Z,12.63
2019-02-26T08:49:15.156Z,14.83
2019-02-26T08:51:45.263Z,14.18
2019-02-26T08:54:20.922Z,12.55
2019-02-26T08:56:47.652Z,12.93
2019-02-26T08:59:20.031Z,13.35
2019-02-26T09:01:50.032Z,12.50
2019-02-26T09:04:23.928Z,12.55
2019-02-26T09:06:55.415Z,13.28
2019-02-26T09:09:27.818Z,12.07
2019-02-26T09:12:00.612Z,12.43
2019-02-26T09:14:34.471Z,13.03
2019-02-26T09:17:05.485Z,11.90
2019-02-26T09:19:38.107Z,13.43
2019-02-26T09:22:11.785Z,12.45
2019-02-26T09:24:40.995Z,11.10
2019-02-26T09:27:11.342Z,11.55
2019-02-26T09:29:48.236Z,11.53
2019-02-26T09:32:15.753Z,12.23
2019-02-26T09:34:45.786Z,12.68
2019-02-26T09:37:16.200Z,12.43
2019-02-26T09:39:46.560Z,12.23
2019-02-26T09:42:16.911Z,12.23
2019-02-26T09:44:48.226Z,12.20
2019-02-26T09:47:21.689Z,12.55
2019-02-26T09:49:53.837Z,12.43
2019-02-26T09:52:27.602Z,13.00
2019-02-26T09:54:57.100Z,15.50
2019-02-26T09:57:28.241Z,11.88
2019-02-26T10:00:00.249Z,12.85
2019-02-26T10:02:30.708Z,12.45
2019-02-26T10:05:01.061Z,13.13
2019-02-26T10:07:35.557Z,12.85
2019-02-26T10:10:06.525Z,13.85
2019-02-26T10:12:37.454Z,13.15
2019-02-26T10:15:15.060Z,13.53
2019-02-26T10:17:45.446Z,13.65
2019-02-26T10:20:29.542Z,13.53
2019-02-26T10:23:01.243Z,13.30
2019-02-26T10:25:32.064Z,13.28
2019-02-26T10:28:08.714Z,12.80
2019-02-26T10:30:38.998Z,12.75
2019-02-26T10:33:08.899Z,13.20
2019-02-26T10:35:42.028Z,12.85
2019-02-26T10:38:11.743Z,12.15
2019-02-26T10:40:53.341Z,13.22
2019-02-26T10:43:14.324Z,12.90
2019-02-26T10:45:47.289Z,13.03
2019-02-26T10:48:19.080Z,13.25
2019-02-26T10:50:49.688Z,13.22
2019-02-26T10:53:22.677Z,12.60
2019-02-26T10:55:52.923Z,13.00
2019-02-26T10:58:24.246Z,12.35
2019-02-26T11:00:55.762Z,12.37
2019-02-26T11:03:26.663Z,12.28
2019-02-26T11:05:57.012Z,12.55
2019-02-26T11:08:29.668Z,12.50
2019-02-26T11:10:59.419Z,12.00
2019-02-26T11:13:29.746Z,12.53
2019-02-26T11:16:03.060Z,13.48
2019-02-26T11:18:34.775Z,12.28
2019-02-26T11:21:05.517Z,12.05
2019-02-26T11:23:36.405Z,12.05
2019-02-26T11:26:10.690Z,11.93
2019-02-26T11:28:42.471Z,12.40
2019-02-26T11:31:14.132Z,12.28
2019-02-26T11:33:44.412Z,11.43
2019-02-26T11:36:15.744Z,12.40
2019-02-26T11:38:47.070Z,12.03
2019-02-26T11:41:17.426Z,10.23
2019-02-26T11:43:47.776Z,10.18
2019-02-26T11:46:20.191Z,10.05
2019-02-26T11:48:52.554Z,9.78
2019-02-26T11:51:23.196Z,8.73
2019-02-26T11:53:53.538Z,8.40
2019-02-26T11:56:25.688Z,8.85
2019-02-26T11:58:55.937Z,7.60
2019-02-26T12:01:27.000Z,7.33
2019-02-26T12:04:03.287Z,6.50
2019-02-26T12:06:29.790Z,6.22
2019-02-26T12:09:00.126Z,7.45
2019-02-26T12:11:30.550Z,7.05
2019-02-26T12:14:00.886Z,6.00
2019-02-26T12:16:31.313Z,4.65
2019-02-26T12:19:03.540Z,6.33
2019-02-26T12:21:34.662Z,7.10
2019-02-26T12:24:06.702Z,8.20
2019-02-26T12:26:37.870Z,6.80
2019-02-26T12:29:08.219Z,5.00
2019-02-26T12:31:39.148Z,5.87
2019-02-26T12:34:11.879Z,5.12
2019-02-26T12:36:41.543Z,5.35
2019-02-26T12:39:11.887Z,4.42
2019-02-26T12:41:45.332Z,4.47
2019-02-26T12:44:16.132Z,3.20
2019-02-26T12:46:47.807Z,3.08
2019-02-26T12:49:21.260Z,2.83
2019-02-26T12:51:53.458Z,3.25
2019-02-26T12:54:22.412Z,3.33
2019-02-26T12:56:55.027Z,3.08
2019-02-26T12:59:25.864Z,2.70
2019-02-26T13:01:56.211Z,2.75
2019-02-26T13:04:26.557Z,3.33
2019-02-26T13:06:56.907Z,3.37
2019-02-26T13:09:27.237Z,3.80
2019-02-26T13:14:29.921Z,3.00
2019-02-26T13:17:00.291Z,3.42
2019-02-26T13:19:33.441Z,3.72
2019-02-26T13:22:06.700Z,3.33
2019-02-26T13:24:34.709Z,3.75
2019-02-26T13:27:05.509Z,3.65
2019-02-26T13:29:35.847Z,3.25
2019-02-26T13:32:08.008Z,3.00
2019-02-26T13:34:38.531Z,2.83
2019-02-26T13:37:08.866Z,2.50
2019-02-26T13:39:41.540Z,2.80
2019-02-26T13:42:14.070Z,2.87
2019-02-26T13:44:43.818Z,2.47
2019-02-26T13:47:14.185Z,2.92
2019-02-26T13:49:44.527Z,2.75
2019-02-26T13:52:14.998Z,3.50
2019-02-26T13:54:45.327Z,3.30
2019-02-26T13:57:17.687Z,3.52
2019-02-26T13:59:47.722Z,3.85
2019-02-26T14:02:18.076Z,4.12
2019-02-26T14:04:48.402Z,4.00
2019-02-26T14:07:18.797Z,4.40
2019-02-26T14:09:49.131Z,4.15
2019-02-26T14:12:19.554Z,3.83
2019-02-26T14:14:49.903Z,4.17
2019-02-26T14:17:20.267Z,4.35
2019-02-26T14:19:50.597Z,4.17
2019-02-26T14:22:21.235Z,3.65
2019-02-26T14:24:51.581Z,3.40
2019-02-26T14:27:21.975Z,4.25
2019-02-26T14:29:52.284Z,4.85
2019-02-26T14:32:22.636Z,3.33
2019-02-26T14:34:52.988Z,4.12
2019-02-26T14:37:23.344Z,4.20
2019-02-26T14:39:53.686Z,6.22
2019-02-26T14:42:24.031Z,5.92
2019-02-26T14:44:54.469Z,6.53
2019-02-26T14:47:24.800Z,6.97
2019-02-26T14:49:55.140Z,7.28
2019-02-26T14:52:25.496Z,7.72
2019-02-26T14:54:56.019Z,7.87
2019-02-26T14:57:26.364Z,7.75
2019-02-26T14:59:56.704Z,7.65
2019-02-26T15:02:27.046Z,7.67
2019-02-26T15:04:57.397Z,6.33
2019-02-26T15:07:27.752Z,6.03
2019-02-26T15:09:58.096Z,6.75
2019-02-26T15:12:28.446Z,5.47
2019-02-26T15:14:58.798Z,5.92
2019-02-26T15:17:29.254Z,6.37
2019-02-26T15:19:59.582Z,7.22
2019-02-26T15:22:29.956Z,7.75
2019-02-26T15:25:00.305Z,6.78
2019-02-26T15:27:36.927Z,7.00
2019-02-26T15:30:02.949Z,6.58
2019-02-26T15:32:34.672Z,7.50
2019-02-26T15:35:06.348Z,8.00
2019-02-26T15:37:36.734Z,8.55
2019-02-26T15:40:11.551Z,8.78
2019-02-26T15:42:42.241Z,8.58
2019-02-26T15:45:29.057Z,8.90
2019-02-26T15:48:03.703Z,7.75
2019-02-26T15:50:33.158Z,7.80
2019-02-26T15:53:03.506Z,7.22
2019-02-26T15:55:33.851Z,7.42
2019-02-26T15:58:06.703Z,7.00
2019-02-26T16:00:38.007Z,7.33
2019-02-26T16:03:08.308Z,7.37
2019-02-26T16:05:39.900Z,7.03
2019-02-26T16:08:10.350Z,7.28
2019-02-26T16:10:40.687Z,7.42
2019-02-26T16:13:11.068Z,7.47
2019-02-26T16:15:41.411Z,6.60
2019-02-26T16:18:11.770Z,6.62
2019-02-26T16:20:42.112Z,6.80
2019-02-26T16:23:12.471Z,6.25
2019-02-26T16:25:42.812Z,7.20
2019-02-26T16:28:13.167Z,7.67
2019-02-26T16:30:43.507Z,6.28
2019-02-26T16:33:14.466Z,6.72
2019-02-26T16:35:44.889Z,6.78
2019-02-26T16:38:15.579Z,7.55
2019-02-26T16:40:45.913Z,6.55
2019-02-26T16:43:35.603Z,7.10
2019-02-26T16:46:08.312Z,6.92
2019-02-26T16:48:38.071Z,7.78
2019-02-26T16:51:08.500Z,6.97
2019-02-26T16:53:38.851Z,5.95
2019-02-26T16:56:09.436Z,5.67
2019-02-26T16:58:39.863Z,6.33
2019-02-26T17:01:10.523Z,6.20
2019-02-26T17:03:40.875Z,5.67
2019-02-26T17:06:11.217Z,5.40
2019-02-26T17:08:41.584Z,6.25
2019-02-26T17:11:13.432Z,7.42
2019-02-26T17:13:44.204Z,7.62
2019-02-26T17:16:14.544Z,7.90
2019-02-26T17:18:44.954Z,6.72
2019-02-26T17:21:15.291Z,6.83
2019-02-26T17:23:47.084Z,7.62
2019-02-26T17:26:17.691Z,7.87
2019-02-26T17:28:48.049Z,6.70
2019-02-26T17:31:18.395Z,7.17
2019-02-26T17:33:48.764Z,6.85
2019-02-26T17:36:19.113Z,7.20
2019-02-26T17:38:51.494Z,7.12
2019-02-26T17:41:21.503Z,7.35
2019-02-26T17:43:51.845Z,7.25
2019-02-26T17:46:22.370Z,7.25
2019-02-26T17:48:53.787Z,6.65
2019-02-26T17:51:24.139Z,6.78
2019-02-26T17:53:54.478Z,7.28
2019-02-26T17:56:26.694Z,6.40
2019-02-26T17:58:56.882Z,7.67
2019-02-26T18:01:27.230Z,6.28
2019-02-26T18:03:57.571Z,8.48
2019-02-26T18:06:27.928Z,6.60
2019-02-26T18:08:58.262Z,7.28
2019-02-26T18:11:28.608Z,6.20
2019-02-26T18:14:00.220Z,6.83
2019-02-26T18:16:31.758Z,6.90
2019-02-26T18:19:03.336Z,6.72
2019-02-26T18:21:33.689Z,6.67
2019-02-26T18:24:04.092Z,6.92
2019-02-26T18:26:34.625Z,6.92
2019-02-26T18:29:05.035Z,6.97
2019-02-26T18:31:35.386Z,6.87
2019-02-26T18:34:05.807Z,6.40
2019-02-26T18:36:37.091Z,6.37
2019-02-26T18:39:23.060Z,6.10
2019-02-26T18:41:50.658Z,6.25
2019-02-26T18:44:17.822Z,6.72
2019-02-26T18:46:49.496Z,6.72
2019-02-26T18:49:21.828Z,7.95
2019-02-26T18:51:52.999Z,8.10
2019-02-26T18:54:24.210Z,7.55
2019-02-26T18:56:54.563Z,8.08
2019-02-26T18:59:24.906Z,7.92
2019-02-26T19:01:55.584Z,7.28
2019-02-26T19:04:25.915Z,8.33
2019-02-26T19:06:59.401Z,7.25
2019-02-26T19:09:28.293Z,7.33
2019-02-26T19:11:58.699Z,8.20
2019-02-26T19:14:29.053Z,7.65
2019-02-26T19:16:59.410Z,7.62
2019-02-26T19:19:29.737Z,7.95
2019-02-26T19:22:02.685Z,7.95
2019-02-26T19:24:35.648Z,8.50
2019-02-26T19:27:05.191Z,7.90
2019-02-26T19:29:35.531Z,7.80
2019-02-26T19:32:05.880Z,7.72
2019-02-26T19:34:36.219Z,8.65
2019-02-26T19:37:06.568Z,7.67
2019-02-26T19:39:36.901Z,8.28
2019-02-26T19:42:07.251Z,7.85
2019-02-26T19:44:37.583Z,7.67
2019-02-26T19:47:07.933Z,8.40
2019-02-26T19:49:39.685Z,8.03
2019-02-26T19:52:10.598Z,8.70
2019-02-26T19:54:42.033Z,7.37
2019-02-26T19:57:13.243Z,8.75
2019-02-26T19:59:46.874Z,8.63
2019-02-26T20:02:15.652Z,8.48
2019-02-26T20:04:46.016Z,7.35
2019-02-26T20:07:16.340Z,9.03
2019-02-26T20:09:46.679Z,9.25
2019-02-26T20:12:18.012Z,8.25
2019-02-26T20:14:49.558Z,8.53
2019-02-26T20:17:22.717Z,8.45
2019-02-26T20:19:54.057Z,8.65
2019-02-26T20:22:25.425Z,8.98
2019-02-26T20:24:55.805Z,8.73
2019-02-26T20:27:26.148Z,9.33
2019-02-26T20:29:57.552Z,9.78
2019-02-26T20:32:31.042Z,9.05
2019-02-26T20:35:01.900Z,9.45
2019-02-26T20:37:33.796Z,9.60
2019-02-26T20:40:06.234Z,8.45
2019-02-26T20:42:36.600Z,9.88
2019-02-26T20:45:11.705Z,9.03
2019-02-26T20:47:42.056Z,9.15
2019-02-26T20:50:13.516Z,9.03
2019-02-26T20:52:43.846Z,8.53
2019-02-26T20:55:27.099Z,8.95
2019-02-26T20:57:57.445Z,9.55
2019-02-26T21:00:48.277Z,10.60
2019-02-26T21:03:18.765Z,9.53
2019-02-26T21:05:49.098Z,10.00
2019-02-26T21:08:19.442Z,10.68
2019-02-26T21:10:49.870Z,10.32
2019-02-26T21:13:20.205Z,10.13
2019-02-26T21:15:51.618Z,9.85
2019-02-26T21:18:21.964Z,10.05
2019-02-26T21:20:52.294Z,10.25
2019-02-26T21:23:22.639Z,9.73
2019-02-26T21:25:52.979Z,10.20
2019-02-26T21:28:23.318Z,10.60
2019-02-26T21:30:53.904Z,9.75
2019-02-26T21:33:24.247Z,10.28
2019-02-26T21:35:54.939Z,10.40
2019-02-26T21:38:25.327Z,11.50
2019-02-26T21:40:55.682Z,12.05
2019-02-26T21:43:26.040Z,12.50
2019-02-26T21:45:57.446Z,11.85
2019-02-26T21:48:27.803Z,12.25
2019-02-26T21:50:58.147Z,12.58
2019-02-26T21:53:28.501Z,11.97
2019-02-26T21:55:58.846Z,12.55
2019-02-26T21:58:29.210Z,12.73
2019-02-26T22:00:59.605Z,11.53
2019-02-26T22:03:29.984Z,10.98
2019-02-26T22:06:05.245Z,11.93
2019-02-26T22:08:32.432Z,11.00
2019-02-26T22:11:02.788Z,11.65
2019-02-26T22:13:33.114Z,10.50
2019-02-26T22:16:03.659Z,11.90
2019-02-26T22:18:34.379Z,10.63
2019-02-26T22:21:04.716Z,11.03
2019-02-26T22:23:35.056Z,11.18
2019-02-26T22:26:05.463Z,11.03
2019-02-26T22:28:35.819Z,11.08
2019-02-26T22:31:06.157Z,11.68
2019-02-26T22:33:36.508Z,10.78
2019-02-26T22:36:06.841Z,11.30
2019-02-26T22:38:37.186Z,11.28
2019-02-26T22:41:07.530Z,11.57
2019-02-26T22:43:37.875Z,11.53
2019-02-26T22:46:08.212Z,11.83
2019-02-26T22:48:38.563Z,11.33
2019-02-26T22:51:09.871Z,11.80
2019-02-26T22:53:40.217Z,10.95
2019-02-26T22:56:10.577Z,11.50
2019-02-26T22:58:40.925Z,11.85
2019-02-26T23:01:17.895Z,11.97
2019-02-26T23:03:49.861Z,12.35
2019-02-26T23:06:20.269Z,11.45
2019-02-26T23:08:50.687Z,11.18
2019-02-26T23:11:21.669Z,11.45
2019-02-26T23:13:54.211Z,12.45
2019-02-26T23:16:25.333Z,11.65
2019-02-26T23:18:55.820Z,11.75
2019-02-26T23:21:26.157Z,13.25
2019-02-26T23:23:57.027Z,12.88
2019-02-26T23:26:27.571Z,13.13
2019-02-26T23:28:59.237Z,12.55
2019-02-26T23:31:32.748Z,12.43
2019-02-26T23:34:02.323Z,11.88
2019-02-26T23:36:32.666Z,12.28
2019-02-26T23:39:04.537Z,12.53
2019-02-26T23:41:36.871Z,11.40
2019-02-26T23:44:07.198Z,11.48
2019-02-26T23:46:38.066Z,13.10
2019-02-26T23:49:08.467Z,12.82
2019-02-26T23:51:38.804Z,12.63
2019-02-26T23:54:09.145Z,11.83
2019-02-26T23:56:39.485Z,12.93
2019-02-26T23:59:10.787Z,12.10
